KLHM/LHM METAR and TAF weather

Enter ICAO airport designator
Station Type Date Time Source
KLHM METAR 2022/06/30 01:35 UTC NOAA

KLHM 300135Z AUTO 20010KT 10SM CLR 33/06 A2987 RMK AO1


Station Type Date Time Source
KLHM Decoded METAR 2022/06/30 01:35 UTC NOAA

Station name not available
Jun 29, 2022 - 09:35 PM EDT / 2022.06.30 0135 UTC
Wind: from the SSW (200 degrees) at 12 MPH (10 KT):0
Visibility: 10 mile(s):0
Sky conditions: clear
Temperature: 91 F (33 C)
Dew Point: 42 F (6 C)
Relative Humidity: 18%
Pressure (altimeter): 29.87 in. Hg (1011 hPa)
ob: KLHM 300135Z AUTO 20010KT 10SM CLR 33/06 A2987 RMK AO1
cycle: 1

Station Type Date Time Source
KLHM TAF UTC NOAA

Error!

Example: see airport list